sensor_id;sensor_type;location;lat;lon;timestamp;temperature;humidity
42841;DHT22;28491;46.898;7.660;2023-04-01T00:01:46;6.30;62.70
42841;DHT22;28491;46.898;7.660;2023-04-01T00:04:12;6.30;63.50
42841;DHT22;28491;46.898;7.660;2023-04-01T00:06:37;6.40;64.40
42841;DHT22;28491;46.898;7.660;2023-04-01T00:09:03;6.40;63.80
42841;DHT22;28491;46.898;7.660;2023-04-01T00:11:28;6.40;64.20
42841;DHT22;28491;46.898;7.660;2023-04-01T00:13:55;6.40;63.80
42841;DHT22;28491;46.898;7.660;2023-04-01T00:16:21;6.40;63.90
42841;DHT22;28491;46.898;7.660;2023-04-01T00:18:47;6.40;64.70
42841;DHT22;28491;46.898;7.660;2023-04-01T00:21:13;6.40;65.80
42841;DHT22;28491;46.898;7.660;2023-04-01T00:23:39;6.30;66.90
42841;DHT22;28491;46.898;7.660;2023-04-01T00:26:04;6.20;69.40
42841;DHT22;28491;46.898;7.660;2023-04-01T00:28:31;6.20;70.30
42841;DHT22;28491;46.898;7.660;2023-04-01T00:30:56;6.40;63.90
42841;DHT22;28491;46.898;7.660;2023-04-01T00:33:22;6.50;62.00
42841;DHT22;28491;46.898;7.660;2023-04-01T00:35:47;6.60;55.30
42841;DHT22;28491;46.898;7.660;2023-04-01T00:38:13;6.70;44.90
42841;DHT22;28491;46.898;7.660;2023-04-01T00:40:41;6.70;41.00
42841;DHT22;28491;46.898;7.660;2023-04-01T00:43:18;6.80;28.10
42841;DHT22;28491;46.898;7.660;2023-04-01T00:45:45;6.90;28.50
42841;DHT22;28491;46.898;7.660;2023-04-01T00:48:16;6.90;23.00
42841;DHT22;28491;46.898;7.660;2023-04-01T00:50:46;6.80;23.30
42841;DHT22;28491;46.898;7.660;2023-04-01T00:53:13;6.80;23.80
42841;DHT22;28491;46.898;7.660;2023-04-01T00:55:44;6.90;24.40
42841;DHT22;28491;46.898;7.660;2023-04-01T00:58:14;6.90;28.30
42841;DHT22;28491;46.898;7.660;2023-04-01T01:00:43;6.90;20.40
42841;DHT22;28491;46.898;7.660;2023-04-01T01:03:10;7.00;15.40
42841;DHT22;28491;46.898;7.660;2023-04-01T01:05:52;6.90;19.40
42841;DHT22;28491;46.898;7.660;2023-04-01T01:11:57;6.90;21.00
42841;DHT22;28491;46.898;7.660;2023-04-01T01:14:49;7.00;6.20
42841;DHT22;28491;46.898;7.660;2023-04-01T01:17:32;7.00;3.50
42841;DHT22;28491;46.898;7.660;2023-04-01T01:20:14;7.00;6.10
42841;DHT22;28491;46.898;7.660;2023-04-01T01:22:54;7.00;1.00
42841;DHT22;28491;46.898;7.660;2023-04-01T01:25:37;6.90;1.30
42841;DHT22;28491;46.898;7.660;2023-04-01T01:33:36;6.90;1.00
42841;DHT22;28491;46.898;7.660;2023-04-01T01:36:07;7.00;1.00
42841;DHT22;28491;46.898;7.660;2023-04-01T01:38:35;7.00;1.00
42841;DHT22;28491;46.898;7.660;2023-04-01T01:41:04;7.00;1.00
42841;DHT22;28491;46.898;7.660;2023-04-01T01:43:35;7.10;1.00
42841;DHT22;28491;46.898;7.660;2023-04-01T01:46:06;7.10;1.00
42841;DHT22;28491;46.898;7.660;2023-04-01T01:48:34;7.10;1.00
42841;DHT22;28491;46.898;7.660;2023-04-01T01:51:01;7.10;1.00
42841;DHT22;28491;46.898;7.660;2023-04-01T01:53:27;7.10;1.00
42841;DHT22;28491;46.898;7.660;2023-04-01T01:55:53;7.10;1.00
42841;DHT22;28491;46.898;7.660;2023-04-01T01:58:47;7.00;1.00
42841;DHT22;28491;46.898;7.660;2023-04-01T02:01:17;7.00;1.00
42841;DHT22;28491;46.898;7.660;2023-04-01T02:03:44;7.00;1.00
42841;DHT22;28491;46.898;7.660;2023-04-01T02:06:15;6.90;1.00
42841;DHT22;28491;46.898;7.660;2023-04-01T02:08:47;6.90;1.00
42841;DHT22;28491;46.898;7.660;2023-04-01T02:11:21;6.90;1.00
42841;DHT22;28491;46.898;7.660;2023-04-01T02:14:06;6.90;1.00
42841;DHT22;28491;46.898;7.660;2023-04-01T02:16:40;7.00;1.00
42841;DHT22;28491;46.898;7.660;2023-04-01T02:19:10;7.00;1.00
42841;DHT22;28491;46.898;7.660;2023-04-01T02:21:38;7.00;1.00
42841;DHT22;28491;46.898;7.660;2023-04-01T02:24:09;7.10;1.00
42841;DHT22;28491;46.898;7.660;2023-04-01T02:26:35;7.10;1.00
42841;DHT22;28491;46.898;7.660;2023-04-01T02:29:03;7.10;1.00
42841;DHT22;28491;46.898;7.660;2023-04-01T02:31:31;7.10;1.00
42841;DHT22;28491;46.898;7.660;2023-04-01T02:33:57;7.10;1.00
42841;DHT22;28491;46.898;7.660;2023-04-01T02:36:23;7.10;1.00
42841;DHT22;28491;46.898;7.660;2023-04-01T02:38:49;7.10;1.00
42841;DHT22;28491;46.898;7.660;2023-04-01T02:41:16;7.00;1.00
42841;DHT22;28491;46.898;7.660;2023-04-01T02:43:42;7.00;1.00
42841;DHT22;28491;46.898;7.660;2023-04-01T02:46:07;6.90;1.00
42841;DHT22;28491;46.898;7.660;2023-04-01T02:48:33;6.90;1.00
42841;DHT22;28491;46.898;7.660;2023-04-01T02:50:58;6.80;1.00
42841;DHT22;28491;46.898;7.660;2023-04-01T02:53:24;6.80;1.00
42841;DHT22;28491;46.898;7.660;2023-04-01T02:55:50;6.80;1.00
42841;DHT22;28491;46.898;7.660;2023-04-01T02:58:17;6.80;1.00
42841;DHT22;28491;46.898;7.660;2023-04-01T03:00:42;6.80;1.00
42841;DHT22;28491;46.898;7.660;2023-04-01T03:03:08;6.80;1.00
42841;DHT22;28491;46.898;7.660;2023-04-01T03:05:34;6.80;1.00
42841;DHT22;28491;46.898;7.660;2023-04-01T03:08:00;6.90;1.00
42841;DHT22;28491;46.898;7.660;2023-04-01T03:10:25;6.80;1.00
42841;DHT22;28491;46.898;7.660;2023-04-01T03:12:51;6.90;1.00
42841;DHT22;28491;46.898;7.660;2023-04-01T03:15:16;6.90;1.00
42841;DHT22;28491;46.898;7.660;2023-04-01T03:17:42;6.90;1.00
42841;DHT22;28491;46.898;7.660;2023-04-01T03:20:09;7.00;1.00
42841;DHT22;28491;46.898;7.660;2023-04-01T03:22:35;6.90;1.00
42841;DHT22;28491;46.898;7.660;2023-04-01T03:25:02;7.00;1.00
42841;DHT22;28491;46.898;7.660;2023-04-01T03:27:28;7.00;1.00
42841;DHT22;28491;46.898;7.660;2023-04-01T03:29:53;7.00;1.00
42841;DHT22;28491;46.898;7.660;2023-04-01T03:32:19;7.00;1.00
42841;DHT22;28491;46.898;7.660;2023-04-01T03:34:44;6.90;1.00
42841;DHT22;28491;46.898;7.660;2023-04-01T03:37:10;6.90;1.00
42841;DHT22;28491;46.898;7.660;2023-04-01T03:39:35;6.90;1.00
42841;DHT22;28491;46.898;7.660;2023-04-01T03:42:01;6.90;1.00
42841;DHT22;28491;46.898;7.660;2023-04-01T03:44:31;6.90;1.00
42841;DHT22;28491;46.898;7.660;2023-04-01T03:46:57;6.90;1.00
42841;DHT22;28491;46.898;7.660;2023-04-01T03:49:23;6.90;1.00
42841;DHT22;28491;46.898;7.660;2023-04-01T03:51:48;6.90;1.00
42841;DHT22;28491;46.898;7.660;2023-04-01T03:54:14;7.00;1.00
42841;DHT22;28491;46.898;7.660;2023-04-01T03:56:39;7.10;1.00
42841;DHT22;28491;46.898;7.660;2023-04-01T03:59:07;7.10;1.00
42841;DHT22;28491;46.898;7.660;2023-04-01T04:01:32;7.20;1.00
42841;DHT22;28491;46.898;7.660;2023-04-01T04:03:58;7.10;1.00
42841;DHT22;28491;46.898;7.660;2023-04-01T04:06:25;7.10;1.00
42841;DHT22;28491;46.898;7.660;2023-04-01T04:08:50;7.10;1.00
42841;DHT22;28491;46.898;7.660;2023-04-01T04:11:16;7.10;1.00
42841;DHT22;28491;46.898;7.660;2023-04-01T04:13:42;7.10;1.00
42841;DHT22;28491;46.898;7.660;2023-04-01T04:16:09;7.00;1.00
42841;DHT22;28491;46.898;7.660;2023-04-01T04:18:36;7.00;1.00
42841;DHT22;28491;46.898;7.660;2023-04-01T04:21:02;7.00;1.00
42841;DHT22;28491;46.898;7.660;2023-04-01T04:23:28;6.90;1.00
42841;DHT22;28491;46.898;7.660;2023-04-01T04:26:00;6.80;1.00
42841;DHT22;28491;46.898;7.660;2023-04-01T04:28:27;6.80;1.00
42841;DHT22;28491;46.898;7.660;2023-04-01T04:30:53;6.80;1.00
42841;DHT22;28491;46.898;7.660;2023-04-01T04:33:21;6.90;1.00
42841;DHT22;28491;46.898;7.660;2023-04-01T04:35:47;6.90;1.00
42841;DHT22;28491;46.898;7.660;2023-04-01T04:38:13;6.90;1.00
42841;DHT22;28491;46.898;7.660;2023-04-01T04:40:39;6.90;1.00
42841;DHT22;28491;46.898;7.660;2023-04-01T04:43:05;7.00;1.00
42841;DHT22;28491;46.898;7.660;2023-04-01T04:45:31;7.00;1.00
42841;DHT22;28491;46.898;7.660;2023-04-01T04:47:57;7.00;1.00
42841;DHT22;28491;46.898;7.660;2023-04-01T04:50:24;7.00;1.00
42841;DHT22;28491;46.898;7.660;2023-04-01T04:52:50;7.00;1.00
42841;DHT22;28491;46.898;7.660;2023-04-01T04:55:16;7.00;1.00
42841;DHT22;28491;46.898;7.660;2023-04-01T04:57:41;6.90;1.00
42841;DHT22;28491;46.898;7.660;2023-04-01T05:00:08;7.00;1.00
42841;DHT22;28491;46.898;7.660;2023-04-01T05:02:35;6.90;1.00
42841;DHT22;28491;46.898;7.660;2023-04-01T05:05:01;7.00;1.00
42841;DHT22;28491;46.898;7.660;2023-04-01T05:07:26;7.00;1.00
42841;DHT22;28491;46.898;7.660;2023-04-01T05:09:51;6.90;1.00
42841;DHT22;28491;46.898;7.660;2023-04-01T05:12:17;7.00;1.00
42841;DHT22;28491;46.898;7.660;2023-04-01T05:14:43;6.90;1.00
42841;DHT22;28491;46.898;7.660;2023-04-01T05:17:10;7.00;1.00
42841;DHT22;28491;46.898;7.660;2023-04-01T05:19:36;7.10;1.00
42841;DHT22;28491;46.898;7.660;2023-04-01T05:22:02;7.10;1.00
42841;DHT22;28491;46.898;7.660;2023-04-01T05:24:27;7.10;1.00
42841;DHT22;28491;46.898;7.660;2023-04-01T05:26:53;7.10;1.00
42841;DHT22;28491;46.898;7.660;2023-04-01T05:29:18;7.10;1.00
42841;DHT22;28491;46.898;7.660;2023-04-01T05:31:44;7.10;1.00
42841;DHT22;28491;46.898;7.660;2023-04-01T05:34:09;7.10;1.00
42841;DHT22;28491;46.898;7.660;2023-04-01T05:36:36;7.20;1.00
42841;DHT22;28491;46.898;7.660;2023-04-01T05:39:01;7.10;1.00
42841;DHT22;28491;46.898;7.660;2023-04-01T05:41:27;7.20;1.00
42841;DHT22;28491;46.898;7.660;2023-04-01T05:43:53;7.20;1.00
42841;DHT22;28491;46.898;7.660;2023-04-01T05:46:18;7.30;1.00
42841;DHT22;28491;46.898;7.660;2023-04-01T05:48:44;7.30;1.00
42841;DHT22;28491;46.898;7.660;2023-04-01T05:51:14;7.40;1.00
42841;DHT22;28491;46.898;7.660;2023-04-01T05:53:40;7.40;1.00
42841;DHT22;28491;46.898;7.660;2023-04-01T05:56:06;7.40;1.00
42841;DHT22;28491;46.898;7.660;2023-04-01T05:58:33;7.50;1.00
42841;DHT22;28491;46.898;7.660;2023-04-01T06:01:03;7.50;1.00
42841;DHT22;28491;46.898;7.660;2023-04-01T06:03:29;7.50;1.00
42841;DHT22;28491;46.898;7.660;2023-04-01T06:05:55;7.50;1.00
42841;DHT22;28491;46.898;7.660;2023-04-01T06:08:20;7.50;1.00
42841;DHT22;28491;46.898;7.660;2023-04-01T06:28:06;7.50;1.00
42841;DHT22;28491;46.898;7.660;2023-04-01T06:33:48;7.60;1.00
42841;DHT22;28491;46.898;7.660;2023-04-01T06:36:45;7.70;1.00
42841;DHT22;28491;46.898;7.660;2023-04-01T06:48:16;7.60;1.00
42841;DHT22;28491;46.898;7.660;2023-04-01T06:53:54;7.50;1.00
42841;DHT22;28491;46.898;7.660;2023-04-01T06:56:25;7.50;1.00
42841;DHT22;28491;46.898;7.660;2023-04-01T06:59:12;7.50;1.00
42841;DHT22;28491;46.898;7.660;2023-04-01T07:01:49;7.60;1.00
42841;DHT22;28491;46.898;7.660;2023-04-01T07:04:37;7.60;1.00
42841;DHT22;28491;46.898;7.660;2023-04-01T07:07:11;7.60;1.00
42841;DHT22;28491;46.898;7.660;2023-04-01T07:09:39;7.80;1.00
42841;DHT22;28491;46.898;7.660;2023-04-01T07:12:27;7.80;1.00
42841;DHT22;28491;46.898;7.660;2023-04-01T07:14:56;7.90;1.00
42841;DHT22;28491;46.898;7.660;2023-04-01T07:17:25;8.00;1.00
42841;DHT22;28491;46.898;7.660;2023-04-01T07:20:02;8.20;1.00
42841;DHT22;28491;46.898;7.660;2023-04-01T07:22:48;8.10;1.00
42841;DHT22;28491;46.898;7.660;2023-04-01T07:27:53;8.10;1.00
42841;DHT22;28491;46.898;7.660;2023-04-01T07:30:23;8.10;1.00
42841;DHT22;28491;46.898;7.660;2023-04-01T07:35:45;8.10;1.00
42841;DHT22;28491;46.898;7.660;2023-04-01T07:38:40;8.10;1.00
42841;DHT22;28491;46.898;7.660;2023-04-01T07:44:16;8.10;1.00
42841;DHT22;28491;46.898;7.660;2023-04-01T07:52:13;8.00;1.00
42841;DHT22;28491;46.898;7.660;2023-04-01T07:58:07;8.00;1.00
42841;DHT22;28491;46.898;7.660;2023-04-01T08:01:02;8.10;1.00
42841;DHT22;28491;46.898;7.660;2023-04-01T08:06:35;8.00;1.00
42841;DHT22;28491;46.898;7.660;2023-04-01T08:09:18;8.10;1.00
42841;DHT22;28491;46.898;7.660;2023-04-01T08:11:56;8.10;1.00
42841;DHT22;28491;46.898;7.660;2023-04-01T08:17:17;8.00;1.00
42841;DHT22;28491;46.898;7.660;2023-04-01T08:20:04;8.00;1.00
42841;DHT22;28491;46.898;7.660;2023-04-01T08:22:40;7.90;1.00
42841;DHT22;28491;46.898;7.660;2023-04-01T08:25:19;7.90;1.00
42841;DHT22;28491;46.898;7.660;2023-04-01T08:27:51;7.90;1.00
42841;DHT22;28491;46.898;7.660;2023-04-01T08:30:25;8.00;1.00
42841;DHT22;28491;46.898;7.660;2023-04-01T08:32:56;8.00;1.00
42841;DHT22;28491;46.898;7.660;2023-04-01T08:36:03;8.10;1.00
42841;DHT22;28491;46.898;7.660;2023-04-01T08:38:49;8.10;1.00
42841;DHT22;28491;46.898;7.660;2023-04-01T08:50:36;8.60;1.00
42841;DHT22;28491;46.898;7.660;2023-04-01T08:56:18;8.70;1.00
42841;DHT22;28491;46.898;7.660;2023-04-01T08:59:26;8.80;1.00
42841;DHT22;28491;46.898;7.660;2023-04-01T09:02:04;8.70;1.00
42841;DHT22;28491;46.898;7.660;2023-04-01T09:07:57;8.70;1.00
42841;DHT22;28491;46.898;7.660;2023-04-01T09:10:51;8.60;1.00
42841;DHT22;28491;46.898;7.660;2023-04-01T09:13:37;8.60;1.00
42841;DHT22;28491;46.898;7.660;2023-04-01T09:19:21;8.60;1.00
42841;DHT22;28491;46.898;7.660;2023-04-01T09:22:06;8.60;1.00
42841;DHT22;28491;46.898;7.660;2023-04-01T09:27:34;8.70;1.00
42841;DHT22;28491;46.898;7.660;2023-04-01T09:36:06;8.80;1.00
42841;DHT22;28491;46.898;7.660;2023-04-01T09:38:44;8.90;1.00
42841;DHT22;28491;46.898;7.660;2023-04-01T09:44:25;9.10;1.00
42841;DHT22;28491;46.898;7.660;2023-04-01T09:47:06;9.20;1.00
42841;DHT22;28491;46.898;7.660;2023-04-01T10:04:49;9.50;1.00
42841;DHT22;28491;46.898;7.660;2023-04-01T10:35:44;9.60;1.00
42841;DHT22;28491;46.898;7.660;2023-04-01T10:46:39;9.80;1.00
42841;DHT22;28491;46.898;7.660;2023-04-01T10:52:20;10.20;1.00
42841;DHT22;28491;46.898;7.660;2023-04-01T11:14:26;11.70;1.00
42841;DHT22;28491;46.898;7.660;2023-04-01T11:25:52;11.80;1.00
42841;DHT22;28491;46.898;7.660;2023-04-01T11:28:43;11.30;1.00
42841;DHT22;28491;46.898;7.660;2023-04-01T11:31:43;11.30;1.00
42841;DHT22;28491;46.898;7.660;2023-04-01T11:34:32;11.60;1.00
42841;DHT22;28491;46.898;7.660;2023-04-01T11:37:22;11.60;1.00
42841;DHT22;28491;46.898;7.660;2023-04-01T11:40:01;11.50;1.00
42841;DHT22;28491;46.898;7.660;2023-04-01T11:42:37;11.40;1.00
42841;DHT22;28491;46.898;7.660;2023-04-01T11:53:30;11.80;1.00
42841;DHT22;28491;46.898;7.660;2023-04-01T12:02:32;11.40;1.00
42841;DHT22;28491;46.898;7.660;2023-04-01T12:16:19;13.40;1.00
42841;DHT22;28491;46.898;7.660;2023-04-01T12:24:36;14.10;1.00
42841;DHT22;28491;46.898;7.660;2023-04-01T12:27:14;13.90;1.00
42841;DHT22;28491;46.898;7.660;2023-04-01T12:30:05;13.70;1.00
42841;DHT22;28491;46.898;7.660;2023-04-01T12:32:53;13.60;1.00
42841;DHT22;28491;46.898;7.660;2023-04-01T12:35:27;13.50;1.00
42841;DHT22;28491;46.898;7.660;2023-04-01T12:38:16;13.20;1.00
42841;DHT22;28491;46.898;7.660;2023-04-01T12:54:58;12.50;1.00
42841;DHT22;28491;46.898;7.660;2023-04-01T13:08:34;12.30;1.00
42841;DHT22;28491;46.898;7.660;2023-04-01T13:11:08;12.20;1.00
42841;DHT22;28491;46.898;7.660;2023-04-01T13:16:36;12.10;1.00
42841;DHT22;28491;46.898;7.660;2023-04-01T13:19:08;12.20;1.00
42841;DHT22;28491;46.898;7.660;2023-04-01T13:21:47;12.20;1.00
42841;DHT22;28491;46.898;7.660;2023-04-01T13:29:36;12.40;1.00
42841;DHT22;28491;46.898;7.660;2023-04-01T13:32:22;12.30;1.00
42841;DHT22;28491;46.898;7.660;2023-04-01T13:40:00;12.20;1.00
42841;DHT22;28491;46.898;7.660;2023-04-01T13:42:28;12.50;1.00
42841;DHT22;28491;46.898;7.660;2023-04-01T13:47:31;12.50;1.00
42841;DHT22;28491;46.898;7.660;2023-04-01T13:58:34;11.80;1.00
42841;DHT22;28491;46.898;7.660;2023-04-01T14:03:42;11.60;1.00
42841;DHT22;28491;46.898;7.660;2023-04-01T14:11:39;11.80;1.00
42841;DHT22;28491;46.898;7.660;2023-04-01T14:16:53;12.10;1.00
42841;DHT22;28491;46.898;7.660;2023-04-01T14:24:36;11.60;1.00
42841;DHT22;28491;46.898;7.660;2023-04-01T14:38:02;11.60;1.00
42841;DHT22;28491;46.898;7.660;2023-04-01T14:40:51;11.60;1.00
42841;DHT22;28491;46.898;7.660;2023-04-01T14:46:29;12.00;1.00
42841;DHT22;28491;46.898;7.660;2023-04-01T14:48:39;12.20;1.00
42841;DHT22;28491;46.898;7.660;2023-04-01T14:51:28;12.20;1.00
42841;DHT22;28491;46.898;7.660;2023-04-01T14:56:36;12.10;1.00
42841;DHT22;28491;46.898;7.660;2023-04-01T14:59:04;12.30;1.00
42841;DHT22;28491;46.898;7.660;2023-04-01T15:01:35;12.20;1.00
42841;DHT22;28491;46.898;7.660;2023-04-01T15:06:48;11.70;1.00
42841;DHT22;28491;46.898;7.660;2023-04-01T15:09:22;11.50;1.00
42841;DHT22;28491;46.898;7.660;2023-04-01T15:14:42;11.50;1.00
42841;DHT22;28491;46.898;7.660;2023-04-01T15:19:59;11.40;1.00
42841;DHT22;28491;46.898;7.660;2023-04-01T15:25:27;11.00;1.00
42841;DHT22;28491;46.898;7.660;2023-04-01T15:33:11;10.50;1.00
42841;DHT22;28491;46.898;7.660;2023-04-01T15:38:35;10.20;1.00
42841;DHT22;28491;46.898;7.660;2023-04-01T15:43:39;9.90;1.00
42841;DHT22;28491;46.898;7.660;2023-04-01T15:56:36;10.00;1.00
42841;DHT22;28491;46.898;7.660;2023-04-01T15:59:20;10.20;1.00
42841;DHT22;28491;46.898;7.660;2023-04-01T16:07:10;10.40;1.00
42841;DHT22;28491;46.898;7.660;2023-04-01T16:12:06;10.10;1.00
42841;DHT22;28491;46.898;7.660;2023-04-01T16:14:39;10.00;1.00
42841;DHT22;28491;46.898;7.660;2023-04-01T16:20:14;9.70;1.00
42841;DHT22;28491;46.898;7.660;2023-04-01T16:28:13;9.80;1.00
42841;DHT22;28491;46.898;7.660;2023-04-01T16:30:48;9.70;1.00
42841;DHT22;28491;46.898;7.660;2023-04-01T16:33:24;9.70;1.00
42841;DHT22;28491;46.898;7.660;2023-04-01T16:36:01;9.70;1.00
42841;DHT22;28491;46.898;7.660;2023-04-01T16:41:17;9.90;1.00
42841;DHT22;28491;46.898;7.660;2023-04-01T16:43:42;10.00;1.00
42841;DHT22;28491;46.898;7.660;2023-04-01T16:48:47;10.10;1.00
42841;DHT22;28491;46.898;7.660;2023-04-01T16:51:17;10.10;1.00
42841;DHT22;28491;46.898;7.660;2023-04-01T16:53:44;10.10;1.00
42841;DHT22;28491;46.898;7.660;2023-04-01T17:03:45;9.80;1.00
42841;DHT22;28491;46.898;7.660;2023-04-01T17:06:14;9.60;1.00
42841;DHT22;28491;46.898;7.660;2023-04-01T17:11:35;9.40;1.00
42841;DHT22;28491;46.898;7.660;2023-04-01T17:16:44;9.40;1.00
42841;DHT22;28491;46.898;7.660;2023-04-01T17:22:07;9.40;1.00
42841;DHT22;28491;46.898;7.660;2023-04-01T17:24:41;9.40;1.00
42841;DHT22;28491;46.898;7.660;2023-04-01T17:30:09;9.30;1.00
42841;DHT22;28491;46.898;7.660;2023-04-01T17:32:45;9.30;1.00
42841;DHT22;28491;46.898;7.660;2023-04-01T17:35:19;9.30;1.00
42841;DHT22;28491;46.898;7.660;2023-04-01T17:45:33;9.10;1.00
42841;DHT22;28491;46.898;7.660;2023-04-01T17:48:15;8.90;1.00
42841;DHT22;28491;46.898;7.660;2023-04-01T17:55:41;8.50;1.00
42841;DHT22;28491;46.898;7.660;2023-04-01T18:05:52;8.40;1.00
42841;DHT22;28491;46.898;7.660;2023-04-01T18:11:11;8.40;1.00
42841;DHT22;28491;46.898;7.660;2023-04-01T18:16:39;8.20;1.00
42841;DHT22;28491;46.898;7.660;2023-04-01T18:19:26;8.10;1.00
42841;DHT22;28491;46.898;7.660;2023-04-01T18:22:15;8.10;1.00
42841;DHT22;28491;46.898;7.660;2023-04-01T18:24:44;8.10;1.00
42841;DHT22;28491;46.898;7.660;2023-04-01T18:27:15;8.00;1.00
42841;DHT22;28491;46.898;7.660;2023-04-01T18:29:51;8.00;1.00
42841;DHT22;28491;46.898;7.660;2023-04-01T18:32:31;8.00;1.00
42841;DHT22;28491;46.898;7.660;2023-04-01T18:35:15;8.00;1.00
42841;DHT22;28491;46.898;7.660;2023-04-01T18:43:08;7.90;1.00
42841;DHT22;28491;46.898;7.660;2023-04-01T18:45:37;7.90;1.00
42841;DHT22;28491;46.898;7.660;2023-04-01T18:50:52;7.90;1.00
42841;DHT22;28491;46.898;7.660;2023-04-01T18:56:14;7.80;1.00
42841;DHT22;28491;46.898;7.660;2023-04-01T18:58:54;7.60;1.00
42841;DHT22;28491;46.898;7.660;2023-04-01T19:01:40;7.60;1.00
42841;DHT22;28491;46.898;7.660;2023-04-01T19:04:10;7.60;1.00
42841;DHT22;28491;46.898;7.660;2023-04-01T19:06:42;7.50;1.00
42841;DHT22;28491;46.898;7.660;2023-04-01T19:09:29;7.50;1.00
42841;DHT22;28491;46.898;7.660;2023-04-01T19:14:42;7.10;1.00
42841;DHT22;28491;46.898;7.660;2023-04-01T19:17:25;7.00;1.00
42841;DHT22;28491;46.898;7.660;2023-04-01T19:19:55;7.00;1.00
42841;DHT22;28491;46.898;7.660;2023-04-01T19:27:37;6.60;1.00
42841;DHT22;28491;46.898;7.660;2023-04-01T19:30:27;6.60;1.00
42841;DHT22;28491;46.898;7.660;2023-04-01T19:37:56;6.70;1.00
42841;DHT22;28491;46.898;7.660;2023-04-01T19:40:33;6.70;1.00
42841;DHT22;28491;46.898;7.660;2023-04-01T19:48:09;6.70;7.10
42841;DHT22;28491;46.898;7.660;2023-04-01T19:53:13;7.00;5.00
42841;DHT22;28491;46.898;7.660;2023-04-01T19:58:24;7.20;12.20
42841;DHT22;28491;46.898;7.660;2023-04-01T20:01:00;7.20;14.80
42841;DHT22;28491;46.898;7.660;2023-04-01T20:03:42;7.30;14.00
42841;DHT22;28491;46.898;7.660;2023-04-01T20:06:20;7.20;15.50
42841;DHT22;28491;46.898;7.660;2023-04-01T20:17:07;7.20;24.80
42841;DHT22;28491;46.898;7.660;2023-04-01T20:21:59;7.10;40.20
42841;DHT22;28491;46.898;7.660;2023-04-01T20:24:33;7.00;46.40
42841;DHT22;28491;46.898;7.660;2023-04-01T20:27:06;7.00;49.80
42841;DHT22;28491;46.898;7.660;2023-04-01T20:29:37;7.00;52.20
42841;DHT22;28491;46.898;7.660;2023-04-01T20:32:17;7.00;48.10
42841;DHT22;28491;46.898;7.660;2023-04-01T20:40:12;7.00;47.90
42841;DHT22;28491;46.898;7.660;2023-04-01T20:42:48;6.90;41.00
42841;DHT22;28491;46.898;7.660;2023-04-01T20:47:51;6.80;43.70
42841;DHT22;28491;46.898;7.660;2023-04-01T20:50:29;6.80;50.10
42841;DHT22;28491;46.898;7.660;2023-04-01T20:52:57;6.70;50.40
42841;DHT22;28491;46.898;7.660;2023-04-01T20:55:53;6.60;42.40
42841;DHT22;28491;46.898;7.660;2023-04-01T20:58:29;6.60;44.70
42841;DHT22;28491;46.898;7.660;2023-04-01T21:16:19;5.90;60.80
42841;DHT22;28491;46.898;7.660;2023-04-01T21:19:04;5.80;61.90
42841;DHT22;28491;46.898;7.660;2023-04-01T21:24:38;5.80;60.80
42841;DHT22;28491;46.898;7.660;2023-04-01T21:29:53;5.90;61.60
42841;DHT22;28491;46.898;7.660;2023-04-01T21:40:32;6.00;64.00
42841;DHT22;28491;46.898;7.660;2023-04-01T22:06:35;6.30;54.00
42841;DHT22;28491;46.898;7.660;2023-04-01T22:09:12;6.30;54.30
42841;DHT22;28491;46.898;7.660;2023-04-01T22:14:19;6.30;60.10
42841;DHT22;28491;46.898;7.660;2023-04-01T22:19:50;6.40;60.70
42841;DHT22;28491;46.898;7.660;2023-04-01T22:24:59;6.50;60.40
42841;DHT22;28491;46.898;7.660;2023-04-01T22:32:32;6.50;60.50
42841;DHT22;28491;46.898;7.660;2023-04-01T22:37:32;6.60;60.10
42841;DHT22;28491;46.898;7.660;2023-04-01T22:42:45;6.50;60.10
42841;DHT22;28491;46.898;7.660;2023-04-01T22:50:27;6.40;60.90
42841;DHT22;28491;46.898;7.660;2023-04-01T22:55:41;6.50;63.10
42841;DHT22;28491;46.898;7.660;2023-04-01T22:58:10;6.40;63.90
42841;DHT22;28491;46.898;7.660;2023-04-01T23:00:52;6.40;65.10
42841;DHT22;28491;46.898;7.660;2023-04-01T23:03:21;6.30;68.70
42841;DHT22;28491;46.898;7.660;2023-04-01T23:05:49;6.30;68.90
42841;DHT22;28491;46.898;7.660;2023-04-01T23:11:00;6.30;74.00
42841;DHT22;28491;46.898;7.660;2023-04-01T23:13:29;6.30;77.30
42841;DHT22;28491;46.898;7.660;2023-04-01T23:15:56;6.20;76.60
42841;DHT22;28491;46.898;7.660;2023-04-01T23:18:24;6.20;79.10
42841;DHT22;28491;46.898;7.660;2023-04-01T23:23:20;6.20;90.20
42841;DHT22;28491;46.898;7.660;2023-04-01T23:31:34;6.10;90.80
42841;DHT22;28491;46.898;7.660;2023-04-01T23:34:00;6.10;91.60
42841;DHT22;28491;46.898;7.660;2023-04-01T23:36:26;6.10;92.10
42841;DHT22;28491;46.898;7.660;2023-04-01T23:38:52;6.10;92.30
42841;DHT22;28491;46.898;7.660;2023-04-01T23:41:27;6.10;91.30
42841;DHT22;28491;46.898;7.660;2023-04-01T23:43:55;6.20;91.10
42841;DHT22;28491;46.898;7.660;2023-04-01T23:46:21;6.20;88.40
42841;DHT22;28491;46.898;7.660;2023-04-01T23:48:47;6.10;84.40
42841;DHT22;28491;46.898;7.660;2023-04-01T23:51:20;6.10;80.30
42841;DHT22;28491;46.898;7.660;2023-04-01T23:53:47;6.00;81.90
42841;DHT22;28491;46.898;7.660;2023-04-01T23:56:16;6.00;83.00
42841;DHT22;28491;46.898;7.660;2023-04-01T23:58:44;5.90;82.40
